createdAt,value
2022-11-04T00:02:29.161Z,7.19
2022-11-04T00:05:00.137Z,7.04
2022-11-04T00:07:58.285Z,6.93
2022-11-04T00:10:45.894Z,6.77
2022-11-04T00:13:19.644Z,6.72
2022-11-04T00:16:05.712Z,6.64
2022-11-04T00:18:35.824Z,6.72
2022-11-04T00:21:21.859Z,6.74
2022-11-04T00:24:53.161Z,6.80
2022-11-04T00:27:45.278Z,6.80
2022-11-04T00:30:12.836Z,6.70
2022-11-04T00:37:17.846Z,6.78
2022-11-04T00:48:49.895Z,6.72
2022-11-04T00:52:09.259Z,6.56
2022-11-04T00:55:37.167Z,6.53
2022-11-04T00:58:33.101Z,6.65
2022-11-04T01:02:20.762Z,6.58
2022-11-04T01:08:28.831Z,6.71
2022-11-04T01:11:20.343Z,6.41
2022-11-04T01:16:57.655Z,6.60
2022-11-04T01:19:36.487Z,6.49
2022-11-04T01:22:09.066Z,6.50
2022-11-04T01:24:41.985Z,6.45
2022-11-04T01:33:15.898Z,6.55
2022-11-04T01:38:48.397Z,6.62
2022-11-04T01:41:40.592Z,6.88
2022-11-04T01:44:59.915Z,6.87
2022-11-04T01:48:08.607Z,7.01
2022-11-04T01:50:45.015Z,7.02
2022-11-04T01:53:42.364Z,6.83
2022-11-04T01:56:23.543Z,6.86
2022-11-04T01:59:20.334Z,7.11
2022-11-04T02:04:58.111Z,7.28
2022-11-04T02:08:18.284Z,7.41
2022-11-04T02:14:58.475Z,7.79
2022-11-04T02:18:16.440Z,7.82
2022-11-04T02:21:25.437Z,7.85
2022-11-04T02:24:33.577Z,7.74
2022-11-04T02:27:40.000Z,7.13
2022-11-04T02:30:20.221Z,7.08
2022-11-04T02:33:31.390Z,7.06
2022-11-04T02:36:52.997Z,7.09
2022-11-04T02:39:56.272Z,6.97
2022-11-04T02:42:37.723Z,7.16
2022-11-04T02:45:25.945Z,7.19
2022-11-04T02:48:49.306Z,6.90
2022-11-04T02:51:50.157Z,6.81
2022-11-04T02:54:41.641Z,6.78
2022-11-04T02:57:17.938Z,6.65
2022-11-04T03:00:04.039Z,6.69
2022-11-04T03:02:46.007Z,6.75
2022-11-04T03:05:31.290Z,6.68
2022-11-04T03:08:11.792Z,6.62
2022-11-04T03:11:20.141Z,6.53
2022-11-04T03:14:10.576Z,6.50
2022-11-04T03:17:09.380Z,6.70
2022-11-04T03:19:59.700Z,6.70
2022-11-04T03:22:36.853Z,6.66
2022-11-04T03:25:14.349Z,6.80
2022-11-04T03:28:52.674Z,6.83
2022-11-04T03:31:44.150Z,7.05
2022-11-04T03:34:22.958Z,6.83
2022-11-04T03:36:50.679Z,6.93
2022-11-04T03:43:25.685Z,6.95
2022-11-04T03:45:56.140Z,6.55
2022-11-04T03:48:27.109Z,6.79
2022-11-04T03:50:55.491Z,7.11
2022-11-04T03:53:33.699Z,6.96
2022-11-04T03:57:20.393Z,7.18
2022-11-04T04:05:23.202Z,7.68
2022-11-04T04:08:20.345Z,7.67
2022-11-04T04:15:48.086Z,7.50
2022-11-04T04:19:12.799Z,7.68
2022-11-04T04:22:15.781Z,7.63
2022-11-04T04:25:18.565Z,7.35
2022-11-04T04:27:51.827Z,7.43
2022-11-04T04:30:22.678Z,7.51
2022-11-04T04:33:25.763Z,7.42
2022-11-04T04:36:00.027Z,7.62
2022-11-04T04:38:51.970Z,7.59
2022-11-04T04:41:50.532Z,7.69
2022-11-04T04:44:47.721Z,7.86
2022-11-04T04:47:51.741Z,7.81
2022-11-04T04:50:21.738Z,7.93
2022-11-04T04:52:53.441Z,7.75
2022-11-04T04:55:23.277Z,7.51
2022-11-04T04:57:50.433Z,7.31
2022-11-04T05:00:21.035Z,7.37
2022-11-04T05:02:49.313Z,7.44
2022-11-04T05:05:17.822Z,7.61
2022-11-04T05:07:45.698Z,7.60
2022-11-04T05:10:16.163Z,7.62
2022-11-04T05:13:02.853Z,7.75
2022-11-04T05:15:33.544Z,7.60
2022-11-04T05:18:03.598Z,7.81
2022-11-04T05:20:34.457Z,7.78
2022-11-04T05:23:09.251Z,7.87
2022-11-04T05:25:36.283Z,7.98
2022-11-04T05:28:03.444Z,7.92
2022-11-04T05:30:30.451Z,8.12
2022-11-04T05:33:01.537Z,7.73
2022-11-04T05:35:32.667Z,7.66
2022-11-04T05:38:00.318Z,7.71
2022-11-04T05:40:27.519Z,7.87
2022-11-04T05:42:58.221Z,8.04
2022-11-04T05:45:29.582Z,8.20
2022-11-04T05:48:06.381Z,8.23
2022-11-04T05:50:56.980Z,8.06
2022-11-04T05:53:29.128Z,8.04
2022-11-04T05:56:04.794Z,8.07
2022-11-04T05:59:33.980Z,8.03
2022-11-04T06:01:42.994Z,8.12
2022-11-04T06:04:31.492Z,8.22
2022-11-04T06:07:01.707Z,8.15
2022-11-04T06:09:41.123Z,8.34
2022-11-04T06:15:19.786Z,8.18
2022-11-04T06:17:47.219Z,8.15
2022-11-04T06:20:55.187Z,8.27
2022-11-04T06:23:43.882Z,8.18
2022-11-04T06:26:32.067Z,7.97
2022-11-04T06:29:14.131Z,7.75
2022-11-04T06:31:41.386Z,7.77
2022-11-04T06:34:09.141Z,7.79
2022-11-04T06:36:36.789Z,7.86
2022-11-04T06:39:22.190Z,8.05
2022-11-04T06:42:26.711Z,8.24
2022-11-04T06:45:22.451Z,8.11
2022-11-04T06:47:52.709Z,8.03
2022-11-04T06:50:25.950Z,8.12
2022-11-04T06:52:56.118Z,8.33
2022-11-04T06:55:23.447Z,8.43
2022-11-04T06:57:51.199Z,8.50
2022-11-04T07:00:23.359Z,8.59
2022-11-04T07:02:50.404Z,8.64
2022-11-04T07:05:17.699Z,8.54
2022-11-04T07:07:44.975Z,8.69
2022-11-04T07:10:12.263Z,8.77
2022-11-04T07:12:39.659Z,8.81
2022-11-04T07:15:10.830Z,8.89
2022-11-04T07:17:38.172Z,8.96
2022-11-04T07:20:08.962Z,8.93
2022-11-04T07:22:35.942Z,8.99
2022-11-04T07:25:12.179Z,9.06
2022-11-04T07:27:39.597Z,9.17
2022-11-04T07:30:10.027Z,9.16
2022-11-04T07:32:37.014Z,9.28
2022-11-04T07:35:07.026Z,9.35
2022-11-04T07:37:34.089Z,9.40
2022-11-04T07:40:01.426Z,9.45
2022-11-04T07:42:28.401Z,9.47
2022-11-04T07:44:58.684Z,9.35
2022-11-04T07:47:25.786Z,9.37
2022-11-04T07:49:52.839Z,9.42
2022-11-04T07:52:19.912Z,9.53
2022-11-04T07:54:46.826Z,9.56
2022-11-04T07:57:14.006Z,9.61
2022-11-04T07:59:40.940Z,9.54
2022-11-04T08:02:10.242Z,9.69
2022-11-04T08:04:38.007Z,9.70
2022-11-04T08:07:07.623Z,9.84
2022-11-04T08:09:36.574Z,9.87
2022-11-04T08:12:06.266Z,9.86
2022-11-04T08:14:33.643Z,9.93
2022-11-04T08:17:00.594Z,9.97
2022-11-04T08:19:27.755Z,10.02
2022-11-04T08:21:54.914Z,10.16
2022-11-04T08:24:21.982Z,10.17
2022-11-04T08:26:49.526Z,10.16
2022-11-04T08:29:17.059Z,10.13
2022-11-04T08:31:44.210Z,10.28
2022-11-04T08:34:11.741Z,10.40
2022-11-04T08:36:42.968Z,10.44
2022-11-04T08:39:11.379Z,10.39
2022-11-04T08:41:43.028Z,10.56
2022-11-04T08:44:14.096Z,10.58
2022-11-04T08:46:46.783Z,10.65
2022-11-04T08:49:19.476Z,10.74
2022-11-04T08:52:00.435Z,10.78
2022-11-04T08:54:30.899Z,11.00
2022-11-04T08:56:58.899Z,11.10
2022-11-04T08:59:28.293Z,11.29
2022-11-04T09:01:55.677Z,11.34
2022-11-04T09:04:22.892Z,11.32
2022-11-04T09:06:52.319Z,11.31
2022-11-04T09:09:20.126Z,11.34
2022-11-04T09:11:47.807Z,11.36
2022-11-04T09:14:15.425Z,11.28
2022-11-04T09:16:43.064Z,11.12
2022-11-04T09:19:10.116Z,11.10
2022-11-04T09:21:37.462Z,11.05
2022-11-04T09:24:06.176Z,11.00
2022-11-04T09:26:33.816Z,11.18
2022-11-04T09:29:01.424Z,11.32
2022-11-04T09:31:31.329Z,11.41
2022-11-04T09:33:58.583Z,11.23
2022-11-04T09:36:26.401Z,11.38
2022-11-04T09:38:53.667Z,11.29
2022-11-04T09:41:58.338Z,11.60
2022-11-04T09:45:07.314Z,11.67
2022-11-04T09:47:35.163Z,11.73
2022-11-04T09:50:06.898Z,11.81
2022-11-04T09:52:48.218Z,11.76
2022-11-04T09:55:49.151Z,11.48
2022-11-04T09:58:16.786Z,11.74
2022-11-04T10:01:02.931Z,11.95
2022-11-04T10:05:04.841Z,12.11
2022-11-04T10:08:09.166Z,12.22
2022-11-04T10:11:01.581Z,12.19
2022-11-04T10:14:14.017Z,12.01
2022-11-04T10:17:09.359Z,12.07
2022-11-04T10:20:13.076Z,12.07
2022-11-04T10:23:13.053Z,11.82
2022-11-04T10:26:12.650Z,11.87
2022-11-04T10:29:06.995Z,11.65
2022-11-04T10:31:38.554Z,11.49
2022-11-04T10:34:34.404Z,11.53
2022-11-04T10:37:01.959Z,11.88
2022-11-04T10:39:39.922Z,11.86
2022-11-04T10:42:12.139Z,12.03
2022-11-04T10:44:43.264Z,12.13
2022-11-04T10:47:55.767Z,11.73
2022-11-04T10:50:41.332Z,11.91
2022-11-04T10:53:24.687Z,11.94
2022-11-04T10:56:13.835Z,12.08
2022-11-04T10:58:47.363Z,11.90
2022-11-04T11:01:35.489Z,11.70
2022-11-04T11:04:08.893Z,11.55
2022-11-04T11:06:37.094Z,11.91
2022-11-04T11:09:56.179Z,11.92
2022-11-04T11:12:50.466Z,11.72
2022-11-04T11:15:40.137Z,11.83
2022-11-04T11:18:15.838Z,11.96
2022-11-04T11:21:04.734Z,11.94
2022-11-04T11:23:51.143Z,11.88
2022-11-04T11:26:30.525Z,11.82
2022-11-04T11:29:04.043Z,11.83
2022-11-04T11:31:40.524Z,11.92
2022-11-04T11:34:32.648Z,11.94
2022-11-04T11:37:05.564Z,11.78
2022-11-04T11:39:36.575Z,11.64
2022-11-04T11:42:12.822Z,11.65
2022-11-04T11:44:54.638Z,11.83
2022-11-04T11:47:41.893Z,11.64
2022-11-04T11:50:32.565Z,11.78
2022-11-04T11:53:23.877Z,11.67
2022-11-04T11:56:18.660Z,11.61
2022-11-04T12:02:40.221Z,11.63
2022-11-04T12:11:46.188Z,11.80
2022-11-04T12:15:10.243Z,11.77
2022-11-04T12:18:20.801Z,11.49
2022-11-04T12:21:21.919Z,11.54
2022-11-04T12:24:02.133Z,11.67
2022-11-04T12:27:03.718Z,11.64
2022-11-04T12:30:07.020Z,11.44
2022-11-04T12:33:49.392Z,11.48
2022-11-04T12:36:48.067Z,11.56
2022-11-04T12:40:12.056Z,11.65
2022-11-04T12:43:25.499Z,11.58
2022-11-04T12:46:37.555Z,11.65
2022-11-04T12:50:00.546Z,11.70
2022-11-04T12:53:32.994Z,11.59
2022-11-04T12:56:17.816Z,11.48
2022-11-04T12:59:16.422Z,11.54
2022-11-04T13:02:17.036Z,11.62
2022-11-04T13:05:12.998Z,11.57
2022-11-04T13:08:24.797Z,11.59
2022-11-04T13:11:25.776Z,11.54
2022-11-04T13:14:09.023Z,11.50
2022-11-04T13:16:43.995Z,11.53
2022-11-04T13:19:42.541Z,11.47
2022-11-04T13:22:19.492Z,11.50
2022-11-04T13:24:59.344Z,11.53
2022-11-04T13:27:40.521Z,11.44
2022-11-04T13:30:16.264Z,11.28
2022-11-04T13:33:21.328Z,11.23
2022-11-04T13:36:34.964Z,11.36
2022-11-04T13:39:12.343Z,11.39
2022-11-04T13:42:32.834Z,11.42
2022-11-04T13:45:17.057Z,11.37
2022-11-04T13:47:55.594Z,11.18
2022-11-04T13:50:38.639Z,11.22
2022-11-04T13:53:12.158Z,11.31
2022-11-04T13:55:51.982Z,11.16
2022-11-04T13:58:27.124Z,11.20
2022-11-04T14:01:24.622Z,11.28
2022-11-04T14:04:25.576Z,11.13
2022-11-04T14:07:00.693Z,11.20
2022-11-04T14:09:49.121Z,11.18
2022-11-04T14:12:18.867Z,11.12
2022-11-04T14:14:56.114Z,11.05
2022-11-04T14:17:35.524Z,11.21
2022-11-04T14:20:06.217Z,11.26
2022-11-04T14:22:56.818Z,11.21
2022-11-04T14:25:44.269Z,11.01
2022-11-04T14:28:13.789Z,11.17
2022-11-04T14:30:49.543Z,10.91
2022-11-04T14:33:42.163Z,10.96
2022-11-04T14:36:20.991Z,10.98
2022-11-04T14:39:10.814Z,11.01
2022-11-04T14:41:49.991Z,10.92
2022-11-04T14:44:51.754Z,11.06
2022-11-04T14:47:33.253Z,11.09
2022-11-04T14:50:08.570Z,11.04
2022-11-04T14:52:44.240Z,11.06
2022-11-04T14:55:19.259Z,11.09
2022-11-04T14:57:53.444Z,11.00
2022-11-04T15:00:39.512Z,11.01
2022-11-04T15:06:11.654Z,10.92
2022-11-04T15:08:41.726Z,11.01
2022-11-04T15:11:16.905Z,11.03
2022-11-04T15:13:57.102Z,11.03
2022-11-04T15:16:33.509Z,10.95
2022-11-04T15:19:00.529Z,10.96
2022-11-04T15:21:30.536Z,10.92
2022-11-04T15:24:05.842Z,10.83
2022-11-04T15:26:37.179Z,10.82
2022-11-04T15:29:14.975Z,10.86
2022-11-04T15:32:22.308Z,10.87
2022-11-04T15:35:26.999Z,10.87
2022-11-04T15:38:03.294Z,10.83
2022-11-04T15:40:36.182Z,10.66
2022-11-04T15:43:09.836Z,10.70
2022-11-04T15:45:52.379Z,10.69
2022-11-04T15:48:28.087Z,10.64
2022-11-04T15:51:26.296Z,10.62
2022-11-04T15:54:23.883Z,10.65
2022-11-04T15:57:16.827Z,10.64
2022-11-04T16:00:13.332Z,10.64
2022-11-04T16:03:03.248Z,10.63
2022-11-04T16:05:40.310Z,10.61
2022-11-04T16:08:31.359Z,10.38
2022-11-04T16:11:20.303Z,10.50
2022-11-04T16:13:48.068Z,10.45
2022-11-04T16:16:26.689Z,10.48
2022-11-04T16:19:22.754Z,10.51
2022-11-04T16:22:13.226Z,10.45
2022-11-04T16:24:48.342Z,10.54
2022-11-04T16:27:21.043Z,10.54
2022-11-04T16:30:20.235Z,10.55
2022-11-04T16:33:07.631Z,10.49
2022-11-04T16:35:38.034Z,10.53
2022-11-04T16:38:16.628Z,10.60
2022-11-04T16:41:05.260Z,10.47
2022-11-04T16:46:47.586Z,10.48
2022-11-04T16:49:24.773Z,10.44
2022-11-04T16:52:01.333Z,10.38
2022-11-04T16:54:29.410Z,10.38
2022-11-04T16:57:00.338Z,10.33
2022-11-04T16:59:27.345Z,10.43
2022-11-04T17:01:54.444Z,10.39
2022-11-04T17:04:29.950Z,10.50
2022-11-04T17:07:00.239Z,10.49
2022-11-04T17:09:27.211Z,10.32
2022-11-04T17:11:54.197Z,10.48
2022-11-04T17:14:28.432Z,10.31
2022-11-04T17:16:58.044Z,10.36
2022-11-04T17:19:25.947Z,10.41
2022-11-04T17:21:55.706Z,10.41
2022-11-04T17:24:22.772Z,10.45
2022-11-04T17:26:55.472Z,10.44
2022-11-04T17:29:22.751Z,10.43
2022-11-04T17:31:50.495Z,10.35
2022-11-04T17:34:17.637Z,10.46
2022-11-04T17:36:47.466Z,10.29
2022-11-04T17:39:18.276Z,10.32
2022-11-04T17:42:06.140Z,10.35
2022-11-04T17:44:36.304Z,10.34
2022-11-04T17:47:03.360Z,10.34
2022-11-04T17:49:30.823Z,10.35
2022-11-04T17:52:34.695Z,10.32
2022-11-04T17:55:27.323Z,10.25
2022-11-04T17:57:57.988Z,10.33
2022-11-04T18:00:45.599Z,10.32
2022-11-04T18:03:12.994Z,10.33
2022-11-04T18:05:43.253Z,10.24
2022-11-04T18:09:23.259Z,10.12
2022-11-04T18:12:08.957Z,10.32
2022-11-04T18:14:55.667Z,10.24
2022-11-04T18:17:25.297Z,10.24
2022-11-04T18:23:08.332Z,10.36
2022-11-04T18:25:51.090Z,10.35
2022-11-04T18:28:36.564Z,10.29
2022-11-04T18:31:19.166Z,10.11
2022-11-04T18:37:06.170Z,10.27
2022-11-04T18:39:33.166Z,10.26
2022-11-04T18:42:18.999Z,10.35
2022-11-04T18:44:46.202Z,10.38
2022-11-04T18:47:14.269Z,10.44
2022-11-04T18:49:41.247Z,10.43
2022-11-04T18:52:08.214Z,10.41
2022-11-04T18:54:36.165Z,10.30
2022-11-04T18:57:04.513Z,10.20
2022-11-04T18:59:32.209Z,10.19
2022-11-04T19:01:59.285Z,10.16
2022-11-04T19:04:26.391Z,10.25
2022-11-04T19:06:53.339Z,10.22
2022-11-04T19:09:46.040Z,10.16
2022-11-04T19:13:19.278Z,10.05
2022-11-04T19:16:55.644Z,10.23
2022-11-04T19:20:36.630Z,10.13
2022-11-04T19:23:45.361Z,10.12
2022-11-04T19:26:59.173Z,10.13
2022-11-04T19:29:37.181Z,10.10
2022-11-04T19:32:18.200Z,10.03
2022-11-04T19:34:59.633Z,10.08
2022-11-04T19:37:27.786Z,10.07
2022-11-04T19:43:11.722Z,10.03
2022-11-04T19:46:25.335Z,10.10
2022-11-04T19:49:36.922Z,10.01
2022-11-04T19:52:52.681Z,10.01
2022-11-04T20:06:42.960Z,9.98
2022-11-04T20:17:08.626Z,10.00
2022-11-04T20:18:56.304Z,9.95
2022-11-04T20:20:10.595Z,9.97
2022-11-04T20:23:31.851Z,10.03
2022-11-04T20:26:31.829Z,10.01
2022-11-04T20:29:22.774Z,9.97
2022-11-04T20:32:19.256Z,9.85
2022-11-04T20:35:18.828Z,9.78
2022-11-04T20:38:28.924Z,9.94
2022-11-04T20:48:33.604Z,9.94
2022-11-04T21:08:32.755Z,9.94
2022-11-04T21:09:40.710Z,9.94
2022-11-04T21:12:36.943Z,9.94
2022-11-04T21:18:53.385Z,9.88
2022-11-04T21:32:29.145Z,9.76
2022-11-04T21:36:02.749Z,9.93
2022-11-04T22:46:31.461Z,9.84
2022-11-04T22:52:22.181Z,9.84
2022-11-04T23:08:14.400Z,9.96
2022-11-04T23:11:37.199Z,9.89
2022-11-04T23:14:48.179Z,9.96
2022-11-04T23:17:48.961Z,10.00
2022-11-04T23:20:39.493Z,9.88
2022-11-04T23:26:38.941Z,9.94
2022-11-04T23:39:32.379Z,9.74
2022-11-04T23:42:52.448Z,9.92
2022-11-04T23:46:02.012Z,9.83
2022-11-04T23:53:04.579Z,9.85
2022-11-04T23:56:58.663Z,9.89
